Latest Coastal Weather Observations for Flinders Reef

IDQ60701

Issued at 10:05 pm EST Saturday 25 October 2014 (issued every 10 minutes, with the page automatically refreshed every 10 minutes)

About coastal observations | Map of coastal stations | Coastal observations for QLD | Marine services | Other Formats
Station Details ID: 200783 Name: FLINDERS REEF Lat: -17.72 Lon: 148.45 Height: 2.6 m
Data from the previous 72 hours. | See also: Recent months at Flinders Reef
Date/Time
EST
Temp

°C
Wind Pressure Rain
since 9am
mm
Weather Cloud Vis
km
Sea
Height
m
Swell
Dir
 
Speed
knots
Gust
knots
hPa Trend Height
m
Period
s
Dir
25/06:00pm 24.1 SE 16 18 1016.2 - - - - - - - - -
25/05:30pm 24.2 SE 16 20 1016.2 - - - - - - - - -
25/05:24pm 24.4 SE 17 - 1016.0 - - - - - - - - -
25/05:00pm 24.4 SE 17 19 1015.9 - - - - - - - - -
25/04:30pm 24.3 SE 16 19 1015.6 - - - - - - - - -
25/04:24pm 24.4 SE 15 - 1015.5 - - - - - - - - -
25/04:00pm 24.3 ESE 15 19 1015.6 - - - - - - - - -
25/03:30pm 24.7 ESE 15 19 1015.9 - - - - - - - - -
25/03:24pm 24.6 ESE 15 - 1015.8 - - - - - - - - -
25/03:00pm 24.7 ESE 17 19 1015.6 - - - - - - - - -
25/02:30pm 24.4 ESE 16 19 1016.1 - - - - - - - - -
25/02:24pm 24.5 ESE 17 - 1016.0 - - - - - - - - -
25/02:00pm 24.6 ESE 16 19 1016.2 - - - - - - - - -
25/01:30pm 24.7 ESE 18 21 1016.4 - - - - - - - - -
25/01:24pm 24.4 ESE 18 - 1016.4 - - - - - - - - -
25/01:00pm 24.3 ESE 19 22 1016.6 - - - - - - - - -
25/12:30pm 24.5 ESE 19 22 1017.0 - - - - - - - - -
25/12:24pm 24.3 ESE 19 - 1017.0 - - - - - - - - -
25/12:00pm 24.4 ESE 19 23 1017.1 - - - - - - - - -
25/11:30am 24.6 ESE 19 22 1017.7 - - - - - - - - -
25/11:24am 24.6 SE 19 - 1017.7 - - - - - - - - -
25/11:00am 24.7 SE 19 22 1018.1 - - - - - - - - -
25/10:30am 24.5 ESE 19 21 1018.3 - - - - - - - - -
25/10:24am 24.7 ESE 19 - 1018.3 - - - - - - - - -
25/10:00am 24.5 SE 18 23 1018.7 - - - - - - - - -
25/09:30am 24.4 ESE 17 21 1019.0 - - - - - - - - -
25/09:24am 24.6 SE 17 - 1018.8 - - - - - - - - -
25/09:00am 24.6 SE 18 20 1018.8 - - - - - - - - -
25/08:30am 24.3 SE 20 22 1018.7 - - - - - - - - -
25/08:24am 24.4 SE 19 - 1018.6 - - - - - - - - -
25/08:00am 24.3 SE 18 21 1018.6 - - - - - - - - -
25/07:30am 24.3 SE 17 21 1018.5 - - - - - - - - -
25/07:24am 24.1 SE 17 - 1018.3 - - - - - - - - -
25/07:00am 24.2 SE 18 21 1018.0 - - - - - - - - -
25/06:30am 23.9 SE 17 20 1017.9 - - - - - - - - -
25/06:24am 23.9 SE 17 - 1017.8 - - - - - - - - -
 
Date/Time
EST
Temp

°C
Wind Pressure Rain
since 9am
mm
Weather Cloud Vis
km
Sea
Height
m
Swell
Dir
 
Speed
knots
Gust
knots
hPa Trend Height
m
Period
s
Dir
24/05:30pm 24.6 SE 18 21 1016.9 - - - - - - - - -
24/05:24pm 24.7 SE 18 - 1016.8 - - - - - - - - -
24/05:00pm 24.8 SE 18 20 1016.6 - - - - - - - - -
24/04:30pm 24.8 SE 17 20 1016.4 - - - - - - - - -
24/04:24pm 24.6 SE 18 - 1016.3 - - - - - - - - -
24/04:00pm 25.0 ESE 18 20 1016.2 - - - - - - - - -
24/03:30pm 24.8 ESE 17 19 1016.1 - - - - - - - - -
24/03:24pm 25.0 ESE 16 - 1016.1 - - - - - - - - -
24/03:00pm 24.7 ESE 17 19 1016.2 - - - - - - - - -
24/02:30pm 24.8 ESE 17 20 1016.3 - - - - - - - - -
24/02:24pm 24.8 ESE 17 - 1016.3 - - - - - - - - -
24/02:00pm 24.7 ESE 18 21 1016.5 - - - - - - - - -
24/01:30pm 24.8 SE 19 21 1016.8 - - - - - - - - -
24/01:24pm 24.9 SE 19 - 1016.7 - - - - - - - - -
24/01:00pm 24.9 SE 18 21 1017.1 - - - - - - - - -
24/12:30pm 24.7 SE 16 19 1017.5 - - - - - - - - -
24/12:24pm 24.7 SE 17 - 1017.6 - - - - - - - - -
24/12:00pm 24.7 SE 17 19 1017.9 - - - - - - - - -
24/11:30am 24.5 ESE 17 20 1018.3 - - - - - - - - -
24/11:24am 24.6 ESE 16 - 1018.3 - - - - - - - - -
24/11:00am 24.5 ESE 17 20 1018.6 - - - - - - - - -
24/10:30am 24.7 ESE 17 21 1018.8 - - - - - - - - -
24/10:24am 24.7 ESE 16 - 1018.8 - - - - - - - - -
24/10:00am 24.7 ESE 18 21 1018.9 - - - - - - - - -
24/09:30am 24.9 SE 19 22 1018.9 - - - - - - - - -
24/09:24am 24.8 ESE 18 - 1018.9 - - - - - - - - -
24/09:00am 24.7 ESE 18 22 1018.9 - - - - - - - - -
24/08:30am 24.4 SE 19 22 1018.7 - - - - - - - - -
24/08:24am 24.8 SE 19 - 1018.5 - - - - - - - - -
24/08:00am 24.5 ESE 19 21 1018.6 - - - - - - - - -
24/07:30am 24.5 ESE 18 20 1018.4 - - - - - - - - -
24/07:24am 24.4 ESE 18 - 1018.2 - - - - - - - - -
24/07:00am 24.3 SE 16 19 1018.1 - - - - - - - - -
24/06:30am 23.9 SE 18 21 1017.9 - - - - - - - - -
24/06:24am 24.1 SE 17 - 1017.8 - - - - - - - - -
24/06:00am 24.0 SE 18 21 1017.7 - - - - - - - - -
 
Date/Time
EST
Temp

°C
Wind Pressure Rain
since 9am
mm
Weather Cloud Vis
km
Sea
Height
m
Swell
Dir
 
Speed
knots
Gust
knots
hPa Trend Height
m
Period
s
Dir
23/05:30pm 23.9 SE 16 19 1016.4 - - - - - - - - -
23/05:00pm 23.6 SE 20 22 1016.0 - - - - - - - - -
23/04:30pm 23.5 SE 20 23 1015.6 - - - - - - - - -
23/04:24pm 23.6 SE 20 - 1015.4 - - - - - - - - -
23/04:00pm 24.4 SE 21 24 1015.4 - - - - - - - - -
23/03:30pm 23.9 SE 21 24 1015.2 - - - - - - - - -
23/03:24pm 23.6 SSE 21 - 1015.2 - - - - - - - - -
23/03:00pm 23.8 SE 19 21 1015.5 - - - - - - - - -
23/02:30pm 23.7 SE 19 23 1015.6 - - - - - - - - -
23/02:24pm 23.2 SE 19 - 1015.5 - - - - - - - - -
23/02:00pm 23.4 SSE 22 24 1015.6 - - - - - - - - -
23/01:30pm 22.7 SE 22 27 1016.0 - - - - - - - - -
23/01:24pm 22.9 SSE 24 - 1016.0 - - - - - - - - -
23/01:00pm 23.5 SE 19 22 1016.3 - - - - - - - - -
23/12:30pm 24.0 SSE 18 21 1016.7 - - - - - - - - -
23/12:24pm 23.8 SSE 19 - 1016.7 - - - - - - - - -
23/12:00pm 23.8 SE 16 20 1017.1 - - - - - - - - -
23/11:30am 23.5 SE 18 21 1017.5 - - - - - - - - -
23/11:24am 23.4 SE 17 - 1017.5 - - - - - - - - -
23/10:37am 23.3 ESE 20 22 1017.9 - - - - - - - - -
23/10:30am 23.7 SE 18 21 1018.1 - - - - - - - - -
23/10:24am 23.4 SE 18 - 1018.0 - - - - - - - - -
23/10:00am 23.3 SE 19 24 1018.2 - - - - - - - - -
23/09:30am 24.0 SE 17 20 1018.1 - - - - - - - - -
23/09:24am 24.4 SE 17 - 1018.0 - - - - - - - - -
23/09:00am 24.1 ESE 15 17 1018.3 - - - - - - - - -
23/08:30am 23.8 ESE 17 19 1018.2 - - - - - - - - -
23/08:24am 23.8 ESE 16 - 1018.2 - - - - - - - - -
23/08:00am 23.6 ESE 15 20 1018.3 - - - - - - - - -
23/07:30am 23.2 ESE 14 16 1018.2 - - - - - - - - -

Other Formats:

Comma delimited format used in spreadsheet applications
http://www.bom.gov.au/fwo/IDQ60701/IDQ60701.94290.axf

JavaScript Object Notation format (JSON) in row-major order
http://www.bom.gov.au/fwo/IDQ60701/IDQ60701.94290.json